Villa Nueva de Guaymallen, Argentina
Current Conditions -  °F | °C
As of 3:00 PM on Sunday 21 Dec 2014 (Local Time) from SAME Reporting Station
Scattered Clouds Scattered Clouds  
Wind Chill: 18°   Ceiling: Unl
Heat Index: 18°   Visibility: 6mi
Dew Point: -4°   Wind: 6mph
Humidity: 22%   Direction: 140°SE
Pressure: 29.97"   Gusts: NA
Location:  32.9°S, 68.78°W
Report Text: SAME 211800Z 14005KT 9999 FEW040 SCT04518/M04 Q1015
Loading
Personal Weather Stations






























Interactive Weather Map New forecast layout! Learn more

10-Day Weather Forecast

Advertisements
Track Severe Weather on mobile